createdAt,value
2022-08-07T00:01:44.206Z,67.10
2022-08-07T00:04:09.334Z,66.90
2022-08-07T00:06:45.533Z,66.90
2022-08-07T00:09:22.236Z,67.00
2022-08-07T00:11:56.119Z,66.60
2022-08-07T00:14:30.913Z,66.70
2022-08-07T00:17:02.990Z,66.90
2022-08-07T00:19:34.479Z,66.40
2022-08-07T00:22:24.470Z,66.50
2022-08-07T00:25:05.379Z,66.20
2022-08-07T00:27:51.973Z,66.40
2022-08-07T00:30:27.915Z,66.60
2022-08-07T00:32:58.572Z,66.60
2022-08-07T00:35:27.307Z,66.80
2022-08-07T00:37:58.791Z,67.00
2022-08-07T00:40:39.798Z,67.30
2022-08-07T00:43:14.021Z,67.30
2022-08-07T00:45:57.917Z,68.00
2022-08-07T00:48:32.166Z,68.00
2022-08-07T00:51:02.623Z,68.50
2022-08-07T00:53:38.797Z,68.50
2022-08-07T00:56:18.393Z,68.10
2022-08-07T00:58:49.606Z,68.40
2022-08-07T01:01:20.296Z,68.40
2022-08-07T01:03:56.439Z,68.50
2022-08-07T01:06:28.644Z,68.30
2022-08-07T01:09:00.802Z,68.60
2022-08-07T01:12:27.439Z,68.90
2022-08-07T01:14:21.421Z,69.40
2022-08-07T01:16:57.874Z,69.60
2022-08-07T01:19:32.263Z,70.20
2022-08-07T01:22:03.675Z,70.40
2022-08-07T01:24:37.489Z,70.90
2022-08-07T01:27:06.210Z,72.40
2022-08-07T01:29:47.968Z,72.90
2022-08-07T01:32:19.563Z,72.00
2022-08-07T01:34:51.896Z,71.60
2022-08-07T01:37:22.047Z,71.70
2022-08-07T01:39:50.350Z,71.70
2022-08-07T01:42:40.044Z,71.80
2022-08-07T01:45:09.713Z,71.80
2022-08-07T01:48:20.332Z,71.80
2022-08-07T01:50:29.046Z,71.80
2022-08-07T01:53:01.394Z,71.90
2022-08-07T01:55:43.346Z,72.00
2022-08-07T01:58:29.065Z,72.40
2022-08-07T02:01:10.117Z,74.10
2022-08-07T02:04:00.970Z,74.80
2022-08-07T02:06:32.629Z,75.30
2022-08-07T02:09:05.838Z,75.30
2022-08-07T02:12:03.527Z,75.90
2022-08-07T02:14:36.191Z,76.00
2022-08-07T02:17:09.931Z,76.20
2022-08-07T02:20:07.383Z,76.80
2022-08-07T02:22:32.707Z,76.90
2022-08-07T02:25:07.110Z,76.90
2022-08-07T02:27:44.251Z,76.80
2022-08-07T02:30:20.587Z,76.40
2022-08-07T02:33:00.985Z,76.20
2022-08-07T02:36:28.945Z,77.10
2022-08-07T02:38:31.665Z,75.80
2022-08-07T02:41:03.724Z,76.00
2022-08-07T02:43:33.869Z,75.90
2022-08-07T02:46:04.005Z,75.50
2022-08-07T02:48:32.231Z,75.10
2022-08-07T02:51:29.040Z,75.10
2022-08-07T02:53:58.914Z,75.40
2022-08-07T02:56:31.778Z,75.20
2022-08-07T02:59:01.993Z,75.10
2022-08-07T03:01:35.714Z,75.20
2022-08-07T03:04:07.601Z,75.20
2022-08-07T03:06:41.444Z,75.30
2022-08-07T03:09:11.321Z,75.60
2022-08-07T03:11:52.441Z,75.80
2022-08-07T03:14:27.760Z,75.90
2022-08-07T03:16:57.131Z,75.70
2022-08-07T03:19:29.080Z,76.10
2022-08-07T03:21:58.732Z,76.30
2022-08-07T03:24:28.137Z,76.70
2022-08-07T03:27:01.701Z,76.70
2022-08-07T03:29:36.792Z,77.00
2022-08-07T03:32:12.900Z,77.10
2022-08-07T03:34:47.247Z,77.30
2022-08-07T03:37:32.852Z,77.60
2022-08-07T03:40:15.023Z,77.80
2022-08-07T03:42:46.275Z,78.10
2022-08-07T03:45:30.371Z,77.90
2022-08-07T03:48:00.432Z,79.10
2022-08-07T03:50:29.884Z,79.40
2022-08-07T03:53:00.396Z,78.50
2022-08-07T03:55:53.378Z,77.80
2022-08-07T03:59:05.042Z,78.30
2022-08-07T04:01:11.854Z,78.70
2022-08-07T04:03:49.779Z,79.00
2022-08-07T04:06:37.830Z,79.20
2022-08-07T04:09:08.333Z,79.30
2022-08-07T04:12:26.571Z,78.50
2022-08-07T04:14:37.312Z,78.10
2022-08-07T04:17:20.336Z,78.50
2022-08-07T04:19:52.291Z,79.10
2022-08-07T04:22:23.404Z,79.70
2022-08-07T04:24:57.923Z,79.80
2022-08-07T04:27:26.833Z,79.90
2022-08-07T04:30:02.082Z,79.40
2022-08-07T04:32:33.935Z,78.10
2022-08-07T04:35:05.552Z,76.60
2022-08-07T04:37:40.424Z,74.90
2022-08-07T04:40:26.710Z,73.30
2022-08-07T04:43:02.279Z,73.30
2022-08-07T04:46:00.221Z,73.90
2022-08-07T04:48:36.758Z,74.90
2022-08-07T04:51:09.589Z,75.80
2022-08-07T04:54:01.435Z,76.40
2022-08-07T04:58:10.442Z,77.20
2022-08-07T05:00:09.838Z,77.80
2022-08-07T05:02:29.045Z,78.10
2022-08-07T05:05:01.775Z,78.30
2022-08-07T05:07:48.695Z,78.50
2022-08-07T05:10:28.487Z,78.70
2022-08-07T05:14:39.174Z,78.50
2022-08-07T05:15:51.931Z,78.80
2022-08-07T05:18:30.735Z,79.00
2022-08-07T05:21:04.007Z,79.30
2022-08-07T05:23:39.797Z,79.60
2022-08-07T05:26:18.883Z,79.60
2022-08-07T05:28:57.384Z,80.20
2022-08-07T05:31:34.573Z,80.60
2022-08-07T05:34:10.969Z,80.80
2022-08-07T05:36:41.378Z,80.70
2022-08-07T05:40:06.323Z,80.80
2022-08-07T05:42:01.664Z,80.60
2022-08-07T05:44:35.243Z,80.90
2022-08-07T05:47:18.148Z,80.90
2022-08-07T05:49:50.467Z,80.90
2022-08-07T05:52:20.381Z,81.20
2022-08-07T05:54:55.411Z,81.30
2022-08-07T05:57:30.482Z,81.30
2022-08-07T06:00:03.428Z,81.00
2022-08-07T06:02:38.075Z,81.20
2022-08-07T06:05:17.507Z,81.80
2022-08-07T06:08:14.885Z,81.80
2022-08-07T06:10:39.649Z,81.40
2022-08-07T06:13:15.487Z,81.10
2022-08-07T06:15:46.810Z,80.80
2022-08-07T06:18:18.927Z,80.80
2022-08-07T06:20:50.241Z,80.80
2022-08-07T06:24:37.815Z,80.70
2022-08-07T06:26:27.360Z,80.60
2022-08-07T06:28:58.891Z,80.90
2022-08-07T06:31:38.806Z,81.10
2022-08-07T06:34:15.910Z,81.00
2022-08-07T06:36:51.917Z,80.80
2022-08-07T06:40:16.668Z,80.20
2022-08-07T06:42:11.847Z,78.80
2022-08-07T06:44:43.188Z,78.10
2022-08-07T06:47:15.178Z,78.40
2022-08-07T06:49:51.702Z,77.20
2022-08-07T06:52:32.859Z,74.50
2022-08-07T06:55:32.699Z,70.40
2022-08-07T06:57:59.228Z,66.60
2022-08-07T07:00:29.376Z,64.90
2022-08-07T07:03:01.371Z,62.70
2022-08-07T07:06:03.514Z,62.10
2022-08-07T07:08:33.573Z,60.40
2022-08-07T07:11:14.008Z,59.70
2022-08-07T07:14:01.592Z,59.90
2022-08-07T07:16:45.140Z,60.50
2022-08-07T07:19:55.652Z,60.50
2022-08-07T07:22:36.435Z,59.40
2022-08-07T07:26:30.695Z,61.00
2022-08-07T07:28:03.308Z,60.10
2022-08-07T07:30:40.074Z,59.10
2022-08-07T07:33:12.108Z,57.90
2022-08-07T07:36:04.819Z,57.70
2022-08-07T07:38:35.992Z,57.40
2022-08-07T07:41:09.703Z,55.70
2022-08-07T07:44:14.297Z,56.80
2022-08-07T07:46:40.189Z,56.50
2022-08-07T07:50:35.168Z,56.80
2022-08-07T07:52:12.835Z,57.80
2022-08-07T07:54:50.788Z,57.60
2022-08-07T07:57:50.535Z,57.80
2022-08-07T08:00:21.055Z,56.30
2022-08-07T08:03:05.362Z,55.50
2022-08-07T08:05:53.583Z,56.80
2022-08-07T08:08:35.088Z,56.40
2022-08-07T08:11:08.489Z,54.70
2022-08-07T08:13:53.261Z,54.80
2022-08-07T08:16:30.054Z,54.40
2022-08-07T08:19:00.540Z,53.90
2022-08-07T08:22:07.941Z,54.60
2022-08-07T08:25:04.649Z,52.40
2022-08-07T08:27:56.633Z,51.80
2022-08-07T08:30:32.081Z,52.20
2022-08-07T08:33:10.322Z,51.50
2022-08-07T08:35:49.710Z,52.90
2022-08-07T08:38:21.582Z,53.20
2022-08-07T08:40:58.850Z,53.20
2022-08-07T08:43:42.003Z,52.80
2022-08-07T08:46:20.286Z,51.50
2022-08-07T08:48:58.434Z,50.60
2022-08-07T08:52:01.110Z,50.80
2022-08-07T08:54:26.268Z,51.10
2022-08-07T08:56:56.102Z,50.90
2022-08-07T08:59:29.363Z,50.90
2022-08-07T09:02:13.284Z,50.10
2022-08-07T09:04:48.310Z,49.40
2022-08-07T09:07:25.353Z,48.70
2022-08-07T09:10:02.553Z,46.90
2022-08-07T09:12:54.283Z,47.60
2022-08-07T09:16:22.376Z,48.60
2022-08-07T09:18:42.288Z,47.90
2022-08-07T09:21:33.742Z,48.00
2022-08-07T09:24:55.457Z,49.10
2022-08-07T09:27:54.640Z,48.20
2022-08-07T09:30:28.300Z,46.50
2022-08-07T09:33:16.780Z,46.90
2022-08-07T09:36:07.797Z,47.10
2022-08-07T09:38:50.209Z,45.90
2022-08-07T09:41:36.142Z,45.50
2022-08-07T09:44:32.815Z,46.40
2022-08-07T09:47:49.462Z,45.80
2022-08-07T09:50:19.889Z,45.70
2022-08-07T09:52:54.313Z,45.00
2022-08-07T09:55:36.955Z,44.10
2022-08-07T09:58:35.339Z,44.10
2022-08-07T10:01:51.795Z,44.60
2022-08-07T10:04:32.802Z,44.60
2022-08-07T10:07:25.816Z,43.70
2022-08-07T10:10:25.650Z,44.10
2022-08-07T10:13:55.250Z,44.40
2022-08-07T10:16:27.435Z,44.80
2022-08-07T10:19:20.167Z,45.10
2022-08-07T10:22:15.662Z,44.40
2022-08-07T10:25:23.038Z,43.70
2022-08-07T10:28:06.318Z,42.60
2022-08-07T10:30:52.404Z,43.10
2022-08-07T10:34:15.199Z,43.30
2022-08-07T10:36:39.900Z,42.90
2022-08-07T10:39:25.648Z,43.60
2022-08-07T10:42:31.247Z,43.60
2022-08-07T10:45:44.004Z,43.30
2022-08-07T10:48:25.975Z,44.30
2022-08-07T10:51:16.975Z,43.70
2022-08-07T10:54:05.335Z,43.00
2022-08-07T10:56:44.948Z,43.00
2022-08-07T10:59:30.329Z,42.90
2022-08-07T11:02:12.168Z,43.00
2022-08-07T11:05:12.524Z,43.10
2022-08-07T11:08:01.247Z,42.40
2022-08-07T11:10:39.354Z,43.10
2022-08-07T11:13:16.789Z,42.90
2022-08-07T11:16:09.412Z,43.00
2022-08-07T11:18:51.734Z,43.20
2022-08-07T11:21:31.905Z,43.50
2022-08-07T11:24:08.539Z,44.10
2022-08-07T11:26:43.445Z,44.80
2022-08-07T11:29:42.082Z,44.60
2022-08-07T11:32:25.873Z,44.10
2022-08-07T11:34:58.054Z,44.80
2022-08-07T11:37:58.479Z,46.10
2022-08-07T11:40:49.725Z,45.30
2022-08-07T11:43:29.703Z,45.20
2022-08-07T11:46:23.394Z,45.10
2022-08-07T11:49:50.625Z,45.40
2022-08-07T11:52:46.641Z,45.80
2022-08-07T11:56:25.585Z,46.60
2022-08-07T11:58:22.020Z,46.30
2022-08-07T12:01:20.332Z,46.20
2022-08-07T12:04:14.872Z,46.10
2022-08-07T12:07:00.368Z,45.90
2022-08-07T12:09:36.723Z,45.10
2022-08-07T12:12:11.634Z,44.90
2022-08-07T12:14:51.437Z,44.40
2022-08-07T12:17:29.015Z,44.50
2022-08-07T12:20:29.922Z,44.60
2022-08-07T12:24:05.893Z,45.30
2022-08-07T12:26:35.445Z,45.00
2022-08-07T12:29:14.065Z,45.00
2022-08-07T12:32:01.940Z,44.70
2022-08-07T12:34:34.585Z,44.80
2022-08-07T12:37:08.781Z,44.40
2022-08-07T12:39:50.613Z,43.50
2022-08-07T12:42:27.824Z,42.80
2022-08-07T12:44:58.952Z,43.30
2022-08-07T12:47:37.753Z,44.10
2022-08-07T12:50:34.201Z,44.20
2022-08-07T12:53:17.771Z,44.50
2022-08-07T12:56:02.437Z,44.50
2022-08-07T12:58:39.226Z,43.80
2022-08-07T13:01:15.710Z,43.10
2022-08-07T13:04:02.940Z,42.80
2022-08-07T13:07:02.172Z,42.50
2022-08-07T13:10:28.758Z,42.80
2022-08-07T13:12:57.484Z,43.80
2022-08-07T13:15:37.546Z,43.60
2022-08-07T13:18:26.539Z,43.60
2022-08-07T13:21:06.029Z,43.60
2022-08-07T13:24:03.973Z,42.80
2022-08-07T13:26:46.409Z,42.70
2022-08-07T13:29:21.172Z,42.70
2022-08-07T13:31:59.838Z,42.40
2022-08-07T13:34:39.217Z,43.20
2022-08-07T13:37:21.534Z,43.20
2022-08-07T13:40:34.067Z,43.20
2022-08-07T13:42:52.736Z,43.10
2022-08-07T13:46:11.142Z,42.90
2022-08-07T13:48:20.819Z,43.10
2022-08-07T13:51:01.843Z,43.00
2022-08-07T13:54:00.264Z,42.90
2022-08-07T13:56:36.105Z,43.00
2022-08-07T13:59:13.464Z,43.60
2022-08-07T14:02:03.528Z,43.50
2022-08-07T14:04:47.467Z,42.90
2022-08-07T14:07:21.107Z,43.30
2022-08-07T14:10:01.423Z,43.70
2022-08-07T14:12:41.831Z,42.80
2022-08-07T14:15:28.071Z,43.10
2022-08-07T14:18:23.754Z,43.00
2022-08-07T14:21:08.399Z,42.70
2022-08-07T14:24:00.943Z,43.10
2022-08-07T14:26:36.974Z,42.90
2022-08-07T14:30:06.199Z,42.80
2022-08-07T14:32:01.267Z,42.40
2022-08-07T14:34:31.701Z,41.70
2022-08-07T14:37:03.544Z,41.80
2022-08-07T14:40:17.552Z,42.90
2022-08-07T14:42:27.525Z,42.50
2022-08-07T14:45:21.340Z,42.80
2022-08-07T14:47:53.109Z,42.50
2022-08-07T14:50:28.096Z,42.70
2022-08-07T14:53:07.773Z,42.30
2022-08-07T14:55:55.294Z,42.10
2022-08-07T14:58:28.817Z,41.50
2022-08-07T15:01:00.174Z,41.70
2022-08-07T15:03:51.612Z,41.90
2022-08-07T15:06:25.741Z,41.40
2022-08-07T15:08:56.266Z,41.40
2022-08-07T15:11:53.290Z,40.90
2022-08-07T15:14:21.708Z,41.20
2022-08-07T15:16:55.839Z,41.50
2022-08-07T15:20:31.444Z,41.20
2022-08-07T15:22:31.360Z,41.10
2022-08-07T15:25:17.569Z,41.60
2022-08-07T15:28:32.416Z,42.40
2022-08-07T15:31:05.135Z,42.50
2022-08-07T15:33:34.022Z,42.20
2022-08-07T15:37:02.475Z,42.50
2022-08-07T15:39:15.893Z,42.70
2022-08-07T15:42:44.541Z,42.50
2022-08-07T15:44:52.549Z,42.20
2022-08-07T15:47:59.995Z,42.10
2022-08-07T15:50:37.689Z,41.90
2022-08-07T15:53:09.076Z,41.90
2022-08-07T15:56:01.892Z,42.20
2022-08-07T15:58:36.966Z,42.50
2022-08-07T16:01:14.361Z,42.60
2022-08-07T16:03:54.416Z,42.60
2022-08-07T16:06:31.636Z,42.70
2022-08-07T16:09:04.177Z,42.80
2022-08-07T16:11:52.713Z,43.30
2022-08-07T16:14:46.095Z,43.50
2022-08-07T16:18:01.865Z,43.80
2022-08-07T16:20:33.663Z,43.90
2022-08-07T16:23:53.441Z,44.20
2022-08-07T16:26:33.777Z,44.30
2022-08-07T16:30:06.067Z,44.20
2022-08-07T16:32:32.998Z,44.30
2022-08-07T16:35:51.701Z,44.10
2022-08-07T16:38:29.578Z,44.00
2022-08-07T16:41:41.757Z,44.50
2022-08-07T16:45:04.174Z,44.20
2022-08-07T16:47:55.877Z,44.10
2022-08-07T16:51:21.801Z,44.40
2022-08-07T16:54:22.174Z,44.60
2022-08-07T16:57:28.824Z,44.70
2022-08-07T17:00:17.353Z,44.90
2022-08-07T17:03:19.217Z,45.00
2022-08-07T17:06:30.182Z,44.90
2022-08-07T17:09:14.151Z,44.80
2022-08-07T17:12:05.196Z,44.50
2022-08-07T17:14:54.750Z,44.60
2022-08-07T17:17:44.180Z,44.70
2022-08-07T17:20:31.942Z,45.20
2022-08-07T17:23:08.608Z,46.10
2022-08-07T17:25:52.804Z,46.50
2022-08-07T17:28:49.899Z,46.70
2022-08-07T17:31:23.649Z,47.20
2022-08-07T17:34:15.002Z,47.50
2022-08-07T17:36:59.995Z,47.80
2022-08-07T17:39:57.831Z,48.00
2022-08-07T17:42:59.123Z,48.20
2022-08-07T17:45:34.889Z,48.30
2022-08-07T17:48:11.291Z,48.50
2022-08-07T17:50:52.488Z,48.50
2022-08-07T17:54:01.419Z,48.80
2022-08-07T17:56:33.661Z,48.90
2022-08-07T17:59:16.831Z,48.80
2022-08-07T18:01:56.619Z,48.70
2022-08-07T18:04:34.826Z,48.80
2022-08-07T18:07:20.985Z,49.00
2022-08-07T18:10:06.197Z,49.00
2022-08-07T18:12:49.639Z,49.00
2022-08-07T18:15:23.833Z,49.10
2022-08-07T18:18:47.361Z,49.00
2022-08-07T18:21:37.277Z,49.30
2022-08-07T18:24:02.496Z,49.40
2022-08-07T18:26:59.278Z,49.10
2022-08-07T18:30:04.487Z,49.20
2022-08-07T18:32:46.216Z,49.40
2022-08-07T18:35:21.575Z,49.60
2022-08-07T18:38:58.987Z,49.50
2022-08-07T18:41:09.968Z,49.90
2022-08-07T18:43:57.719Z,50.20
2022-08-07T18:46:34.035Z,50.30
2022-08-07T18:50:32.315Z,50.40
2022-08-07T18:52:37.675Z,50.70
2022-08-07T18:55:41.056Z,50.90
2022-08-07T18:58:23.397Z,50.90
2022-08-07T19:01:06.739Z,50.70
2022-08-07T19:03:45.494Z,50.80
2022-08-07T19:06:21.597Z,50.90
2022-08-07T19:09:55.902Z,51.00
2022-08-07T19:12:15.566Z,51.10
2022-08-07T19:16:03.331Z,51.40
2022-08-07T19:18:11.417Z,51.60
2022-08-07T19:21:08.415Z,51.70
2022-08-07T19:23:59.340Z,51.90
2022-08-07T19:27:08.922Z,52.10
2022-08-07T19:31:01.229Z,52.40
2022-08-07T19:32:44.900Z,52.60
2022-08-07T19:35:19.686Z,52.70
2022-08-07T19:37:58.158Z,52.80
2022-08-07T19:40:31.889Z,52.70
2022-08-07T19:43:21.231Z,53.00
2022-08-07T19:46:04.673Z,53.30
2022-08-07T19:48:42.959Z,53.50
2022-08-07T19:51:20.508Z,53.70
2022-08-07T19:54:44.263Z,53.70
2022-08-07T19:58:01.512Z,53.90
2022-08-07T19:59:50.794Z,54.30
2022-08-07T20:02:30.335Z,54.50
2022-08-07T20:05:03.611Z,54.80
2022-08-07T20:07:47.840Z,55.40
2022-08-07T20:10:36.070Z,55.30
2022-08-07T20:13:22.456Z,55.50
2022-08-07T20:15:52.167Z,55.70
2022-08-07T20:18:33.040Z,55.60
2022-08-07T20:21:14.425Z,55.40
2022-08-07T20:23:57.624Z,55.70
2022-08-07T20:26:38.731Z,56.20
2022-08-07T20:29:49.018Z,56.60
2022-08-07T20:32:11.573Z,57.30
2022-08-07T20:34:52.598Z,57.20
2022-08-07T20:37:55.422Z,57.50
2022-08-07T20:40:32.384Z,58.00
2022-08-07T20:43:14.449Z,57.90
2022-08-07T20:46:26.516Z,58.10
2022-08-07T20:48:58.031Z,58.70
2022-08-07T20:51:30.782Z,58.80
2022-08-07T20:54:08.579Z,58.90
2022-08-07T20:56:51.628Z,59.60
2022-08-07T20:59:27.150Z,60.10
2022-08-07T21:02:38.463Z,60.30
2022-08-07T21:05:16.662Z,60.70
2022-08-07T21:07:49.526Z,60.70
2022-08-07T21:10:25.217Z,60.50
2022-08-07T21:13:05.978Z,60.20
2022-08-07T21:15:47.604Z,59.50
2022-08-07T21:18:31.992Z,59.80
2022-08-07T21:21:04.122Z,60.10
2022-08-07T21:23:50.634Z,59.60
2022-08-07T21:26:32.180Z,59.80
2022-08-07T21:29:15.763Z,60.20
2022-08-07T21:32:43.796Z,60.90
2022-08-07T21:34:48.440Z,61.40
2022-08-07T21:37:22.678Z,61.70
2022-08-07T21:39:56.834Z,62.30
2022-08-07T21:42:42.605Z,61.80
2022-08-07T21:46:05.219Z,61.60
2022-08-07T21:48:34.416Z,62.00
2022-08-07T21:51:20.125Z,62.30
2022-08-07T21:53:56.157Z,62.30
2022-08-07T21:56:42.408Z,62.60
2022-08-07T22:00:02.781Z,62.90
2022-08-07T22:02:28.447Z,63.60
2022-08-07T22:05:02.140Z,62.90
2022-08-07T22:07:57.865Z,63.10
2022-08-07T22:10:26.148Z,63.40
2022-08-07T22:12:56.755Z,63.00
2022-08-07T22:16:41.928Z,63.00
2022-08-07T22:18:25.532Z,63.30
2022-08-07T22:21:02.421Z,64.00
2022-08-07T22:23:40.545Z,64.40
2022-08-07T22:26:17.109Z,63.70
2022-08-07T22:28:53.618Z,64.30
2022-08-07T22:31:45.697Z,64.80
2022-08-07T22:34:29.125Z,65.00
2022-08-07T22:37:12.490Z,64.30
2022-08-07T22:39:52.606Z,64.20
2022-08-07T22:42:26.052Z,64.30
2022-08-07T22:45:02.368Z,64.30
2022-08-07T22:48:03.060Z,64.90
2022-08-07T22:50:55.419Z,65.60
2022-08-07T22:54:08.866Z,66.80
2022-08-07T22:56:42.169Z,67.40
2022-08-07T22:59:33.293Z,68.40
2022-08-07T23:02:16.404Z,68.70
2022-08-07T23:06:08.737Z,68.70
2022-08-07T23:08:07.260Z,67.20
2022-08-07T23:11:12.984Z,66.60
2022-08-07T23:14:15.463Z,67.10
2022-08-07T23:17:08.929Z,67.40
2022-08-07T23:20:10.235Z,67.80
2022-08-07T23:22:52.267Z,68.10
2022-08-07T23:25:33.459Z,67.80
2022-08-07T23:28:28.603Z,68.90
2022-08-07T23:31:13.902Z,69.20
2022-08-07T23:34:34.210Z,69.60
2022-08-07T23:37:20.011Z,69.70
2022-08-07T23:40:03.869Z,70.40
2022-08-07T23:43:01.869Z,70.00
2022-08-07T23:46:03.142Z,70.00
2022-08-07T23:48:53.011Z,70.10
2022-08-07T23:53:01.180Z,70.10
2022-08-07T23:54:36.160Z,70.60
2022-08-07T23:57:22.204Z,70.10
